createdAt,value
2022-08-12T00:01:18.991Z,16.50
2022-08-12T00:06:42.417Z,16.50
2022-08-12T00:11:44.673Z,16.50
2022-08-12T00:17:01.408Z,16.40
2022-08-12T00:27:57.439Z,16.00
2022-08-12T01:00:23.818Z,15.40
2022-08-12T01:05:41.279Z,15.50
2022-08-12T01:11:22.964Z,15.40
2022-08-12T01:27:41.322Z,15.80
2022-08-12T01:32:47.658Z,15.90
2022-08-12T01:37:57.587Z,15.80
2022-08-12T01:43:11.828Z,15.90
2022-08-12T01:54:02.104Z,16.10
2022-08-12T01:59:07.060Z,16.20
2022-08-12T02:04:21.793Z,16.20
2022-08-12T02:09:42.383Z,16.30
2022-08-12T02:14:53.317Z,16.20
2022-08-12T02:20:10.006Z,16.10
2022-08-12T02:25:16.133Z,16.20
2022-08-12T02:30:21.460Z,16.10
2022-08-12T02:35:24.023Z,15.90
2022-08-12T02:40:27.713Z,15.60
2022-08-12T02:45:41.807Z,15.60
2022-08-12T02:50:48.801Z,15.50
2022-08-12T02:55:51.071Z,15.60
2022-08-12T03:00:54.693Z,15.80
2022-08-12T03:06:00.174Z,15.70
2022-08-12T03:11:25.874Z,15.60
2022-08-12T03:16:33.239Z,15.50
2022-08-12T03:21:52.739Z,15.50
2022-08-12T03:27:00.655Z,15.40
2022-08-12T03:32:05.624Z,15.30
2022-08-12T03:37:11.083Z,15.30
2022-08-12T03:42:21.301Z,15.20
2022-08-12T03:47:33.857Z,15.10
2022-08-12T03:52:35.898Z,14.90
2022-08-12T03:57:38.007Z,14.80
2022-08-12T04:02:44.378Z,14.70
2022-08-12T04:07:56.340Z,14.60
2022-08-12T04:13:00.434Z,14.60
2022-08-12T04:18:06.475Z,14.60
2022-08-12T04:23:10.370Z,14.60
2022-08-12T04:28:26.012Z,14.40
2022-08-12T04:33:29.322Z,14.30
2022-08-12T04:38:33.423Z,14.20
2022-08-12T07:38:35.275Z,23.20
2022-08-12T07:43:49.770Z,23.60
2022-08-12T08:00:03.400Z,24.10
2022-08-12T08:05:05.373Z,24.40
2022-08-12T08:10:09.929Z,24.70
2022-08-12T08:15:14.112Z,25.10
2022-08-12T08:20:15.896Z,25.30
2022-08-12T08:25:34.503Z,25.60
2022-08-12T08:30:43.428Z,25.80
2022-08-12T08:35:46.769Z,26.00
2022-08-12T08:40:49.422Z,26.00
2022-08-12T08:45:54.305Z,26.00
2022-08-12T08:50:57.728Z,26.30
2022-08-12T08:56:07.306Z,26.40
2022-08-12T09:01:10.485Z,26.70
2022-08-12T09:06:19.904Z,27.10
2022-08-12T09:12:11.485Z,27.20
2022-08-12T09:17:04.948Z,27.40
2022-08-12T09:22:08.266Z,27.50
2022-08-12T09:27:12.165Z,27.30
2022-08-12T09:32:31.507Z,27.50
2022-08-12T09:37:58.845Z,27.40
2022-08-12T09:43:16.113Z,27.60
2022-08-12T09:48:22.046Z,28.20
2022-08-12T09:53:36.271Z,28.30
2022-08-12T09:58:58.733Z,28.30
2022-08-12T10:04:05.576Z,28.30
2022-08-12T10:09:09.498Z,28.20
2022-08-12T10:14:13.302Z,28.80
2022-08-12T10:19:17.929Z,28.80
2022-08-12T10:24:20.443Z,28.90
2022-08-12T10:30:37.025Z,29.30
2022-08-12T10:34:53.761Z,29.10
2022-08-12T10:40:02.009Z,29.40
2022-08-12T10:45:14.275Z,29.20
2022-08-12T10:50:28.229Z,29.40
2022-08-12T10:55:39.249Z,29.30
2022-08-12T11:00:55.128Z,29.20
2022-08-12T11:07:05.239Z,29.50
2022-08-12T11:12:35.594Z,29.90
2022-08-12T11:17:34.041Z,30.00
2022-08-12T11:22:12.529Z,29.90
2022-08-12T11:27:16.314Z,29.80
2022-08-12T11:32:18.626Z,30.20
2022-08-12T11:37:24.714Z,30.10
2022-08-12T11:42:32.344Z,30.00
2022-08-12T11:47:40.238Z,30.20
2022-08-12T11:52:55.592Z,30.10
2022-08-12T11:58:17.212Z,30.50
2022-08-12T12:03:19.882Z,30.30
2022-08-12T12:08:38.901Z,30.10
2022-08-12T12:14:08.175Z,30.10
2022-08-12T12:19:05.798Z,30.30
2022-08-12T12:24:09.216Z,30.30
2022-08-12T12:30:14.909Z,30.50
2022-08-12T12:34:33.105Z,30.30
2022-08-12T12:39:55.410Z,30.50
2022-08-12T12:44:57.561Z,30.70
2022-08-12T12:49:59.463Z,30.80
2022-08-12T12:55:03.139Z,30.70
2022-08-12T13:00:06.217Z,30.90
2022-08-12T13:05:11.815Z,31.40
2022-08-12T13:10:17.238Z,31.20
2022-08-12T13:15:43.514Z,31.20
2022-08-12T13:20:44.671Z,31.00
2022-08-12T13:25:47.926Z,31.00
2022-08-12T13:30:55.991Z,31.40
2022-08-12T13:36:05.646Z,31.50
2022-08-12T13:41:14.828Z,31.80
2022-08-12T13:46:20.007Z,31.70
2022-08-12T13:51:24.426Z,31.70
2022-08-12T13:56:33.495Z,32.00
2022-08-12T14:01:40.451Z,31.90
2022-08-12T14:06:44.763Z,31.90
2022-08-12T14:11:59.092Z,31.10
2022-08-12T14:17:01.568Z,30.50
2022-08-12T14:22:07.232Z,31.00
2022-08-12T14:27:13.186Z,31.60
2022-08-12T14:32:16.505Z,32.10
2022-08-12T14:37:54.998Z,32.10
2022-08-12T14:42:43.087Z,30.60
2022-08-12T14:47:49.982Z,29.60
2022-08-12T14:58:15.741Z,29.80
2022-08-12T15:03:17.586Z,30.00
2022-08-12T15:08:24.711Z,29.70
2022-08-12T15:13:34.201Z,29.00
2022-08-12T15:18:55.527Z,28.90
2022-08-12T15:24:01.411Z,28.60
2022-08-12T15:29:04.711Z,29.40
2022-08-12T15:34:08.143Z,30.40
2022-08-12T15:39:16.674Z,31.10
2022-08-12T15:44:41.796Z,31.30
2022-08-12T15:49:43.441Z,30.60
2022-08-12T15:55:06.061Z,29.80
2022-08-12T16:00:31.764Z,29.80
2022-08-12T16:06:13.211Z,30.70
2022-08-12T16:11:07.292Z,30.60
2022-08-12T16:16:37.338Z,29.80
2022-08-12T16:21:52.059Z,29.10
2022-08-12T16:27:00.268Z,28.70
2022-08-12T16:32:04.386Z,28.90
2022-08-12T16:37:07.126Z,29.00
2022-08-12T16:42:09.326Z,29.10
2022-08-12T16:47:12.851Z,29.10
2022-08-12T16:52:18.196Z,28.90
2022-08-12T16:57:34.841Z,28.60
2022-08-12T17:02:44.798Z,28.20
2022-08-12T17:08:00.452Z,28.20
2022-08-12T17:13:09.530Z,28.10
2022-08-12T17:18:39.238Z,28.10
2022-08-12T17:23:48.659Z,27.90
2022-08-12T17:28:57.546Z,27.60
2022-08-12T17:34:00.874Z,27.30
2022-08-12T17:39:04.291Z,27.30
2022-08-12T17:44:11.418Z,27.00
2022-08-12T17:50:01.512Z,26.90
2022-08-12T17:54:39.575Z,27.00
2022-08-12T17:59:47.869Z,27.00
2022-08-12T18:05:05.212Z,27.10
2022-08-12T18:10:12.619Z,27.00
2022-08-12T18:15:26.047Z,26.80
2022-08-12T18:20:36.340Z,26.70
2022-08-12T18:26:14.531Z,26.40
2022-08-12T18:31:03.271Z,26.00
2022-08-12T18:36:08.140Z,25.40
2022-08-12T18:41:20.908Z,24.90
2022-08-12T18:46:30.675Z,24.60
2022-08-12T18:51:45.923Z,24.40
2022-08-12T18:56:52.104Z,23.80
2022-08-12T19:02:21.305Z,23.40
2022-08-12T19:07:23.357Z,23.00
2022-08-12T19:12:30.247Z,22.70
2022-08-12T19:17:47.492Z,22.30
2022-08-12T19:22:58.045Z,21.90
2022-08-12T19:28:05.515Z,21.40
2022-08-12T19:33:08.610Z,21.10
2022-08-12T21:02:45.879Z,18.10
2022-08-12T21:07:52.648Z,18.10
2022-08-12T21:12:54.794Z,18.20
2022-08-12T21:18:11.031Z,17.90
2022-08-12T21:23:23.945Z,17.70
2022-08-12T21:28:31.431Z,17.70
2022-08-12T21:33:58.903Z,17.70
2022-08-12T21:38:57.736Z,17.60
2022-08-12T21:44:01.679Z,17.50
2022-08-12T21:49:05.716Z,17.30
2022-08-12T21:54:09.873Z,17.10
2022-08-12T21:59:13.647Z,17.00
2022-08-12T22:04:18.259Z,16.70
2022-08-12T22:09:22.041Z,16.50
2022-08-12T22:14:24.202Z,16.40
2022-08-12T22:19:27.532Z,16.40
2022-08-12T22:24:30.707Z,16.10
2022-08-12T22:29:32.832Z,15.80
2022-08-12T22:34:36.879Z,15.80
2022-08-12T22:45:00.715Z,15.40
2022-08-12T22:50:05.866Z,15.30
2022-08-12T22:55:08.221Z,15.30
2022-08-12T23:00:24.631Z,15.20
2022-08-12T23:10:59.133Z,14.80
2022-08-12T23:16:01.644Z,14.60
2022-08-12T23:21:05.065Z,14.40
2022-08-12T23:26:15.639Z,14.40
2022-08-12T23:31:23.101Z,14.20
2022-08-12T23:36:39.783Z,14.10
2022-08-12T23:41:56.680Z,14.00
2022-08-12T23:47:07.894Z,13.90
2022-08-12T23:52:12.230Z,14.00
2022-08-12T23:57:14.937Z,14.20
